sensor_id;sensor_type;location;lat;lon;timestamp;P1;durP1;ratioP1;P2;durP2;ratioP2
66095;SDS011;53861;53.422;14.530;2023-05-10T00:00:52;10.57;;;4.60;;
66095;SDS011;53861;53.422;14.530;2023-05-10T00:03:19;11.82;;;5.30;;
66095;SDS011;53861;53.422;14.530;2023-05-10T00:05:49;11.95;;;4.78;;
66095;SDS011;53861;53.422;14.530;2023-05-10T00:08:17;11.38;;;5.07;;
66095;SDS011;53861;53.422;14.530;2023-05-10T00:10:44;9.05;;;4.93;;
66095;SDS011;53861;53.422;14.530;2023-05-10T00:13:12;16.90;;;5.00;;
66095;SDS011;53861;53.422;14.530;2023-05-10T00:15:46;12.63;;;5.57;;
66095;SDS011;53861;53.422;14.530;2023-05-10T00:18:14;9.98;;;4.82;;
66095;SDS011;53861;53.422;14.530;2023-05-10T00:20:41;15.48;;;5.50;;
66095;SDS011;53861;53.422;14.530;2023-05-10T00:23:08;12.35;;;5.72;;
66095;SDS011;53861;53.422;14.530;2023-05-10T00:25:35;12.50;;;5.25;;
66095;SDS011;53861;53.422;14.530;2023-05-10T00:28:04;13.65;;;5.32;;
66095;SDS011;53861;53.422;14.530;2023-05-10T00:30:34;17.23;;;5.40;;
66095;SDS011;53861;53.422;14.530;2023-05-10T00:33:03;11.32;;;5.22;;
66095;SDS011;53861;53.422;14.530;2023-05-10T00:35:30;11.07;;;5.20;;
66095;SDS011;53861;53.422;14.530;2023-05-10T00:37:57;12.13;;;5.60;;
66095;SDS011;53861;53.422;14.530;2023-05-10T00:40:25;12.82;;;5.85;;
66095;SDS011;53861;53.422;14.530;2023-05-10T00:42:54;13.98;;;5.30;;
66095;SDS011;53861;53.422;14.530;2023-05-10T00:45:21;14.13;;;5.85;;
66095;SDS011;53861;53.422;14.530;2023-05-10T00:47:50;11.38;;;5.65;;
66095;SDS011;53861;53.422;14.530;2023-05-10T00:50:22;9.85;;;5.88;;
66095;SDS011;53861;53.422;14.530;2023-05-10T00:52:50;13.30;;;5.60;;
66095;SDS011;53861;53.422;14.530;2023-05-10T00:55:20;13.90;;;6.25;;
66095;SDS011;53861;53.422;14.530;2023-05-10T00:57:50;12.00;;;5.75;;
66095;SDS011;53861;53.422;14.530;2023-05-10T01:00:17;11.88;;;5.68;;
66095;SDS011;53861;53.422;14.530;2023-05-10T01:02:45;12.10;;;6.10;;
66095;SDS011;53861;53.422;14.530;2023-05-10T01:05:16;11.05;;;5.50;;
66095;SDS011;53861;53.422;14.530;2023-05-10T01:07:44;10.40;;;5.55;;
66095;SDS011;53861;53.422;14.530;2023-05-10T01:10:12;11.65;;;5.68;;
66095;SDS011;53861;53.422;14.530;2023-05-10T01:12:43;11.05;;;6.00;;
66095;SDS011;53861;53.422;14.530;2023-05-10T01:15:13;13.70;;;5.97;;
66095;SDS011;53861;53.422;14.530;2023-05-10T01:17:44;15.93;;;6.40;;
66095;SDS011;53861;53.422;14.530;2023-05-10T01:20:16;11.50;;;5.70;;
66095;SDS011;53861;53.422;14.530;2023-05-10T01:25:55;12.75;;;5.95;;
66095;SDS011;53861;53.422;14.530;2023-05-10T01:29:06;12.55;;;5.97;;
66095;SDS011;53861;53.422;14.530;2023-05-10T01:34:59;12.32;;;6.20;;
66095;SDS011;53861;53.422;14.530;2023-05-10T01:37:33;13.48;;;5.82;;
66095;SDS011;53861;53.422;14.530;2023-05-10T01:40:08;14.15;;;6.30;;
66095;SDS011;53861;53.422;14.530;2023-05-10T01:42:50;16.35;;;6.35;;
66095;SDS011;53861;53.422;14.530;2023-05-10T01:45:23;11.98;;;6.40;;
66095;SDS011;53861;53.422;14.530;2023-05-10T01:47:58;13.07;;;5.88;;
66095;SDS011;53861;53.422;14.530;2023-05-10T01:50:32;15.73;;;6.53;;
66095;SDS011;53861;53.422;14.530;2023-05-10T01:53:02;15.38;;;6.10;;
66095;SDS011;53861;53.422;14.530;2023-05-10T01:55:35;14.02;;;6.32;;
66095;SDS011;53861;53.422;14.530;2023-05-10T01:58:09;14.93;;;6.00;;
66095;SDS011;53861;53.422;14.530;2023-05-10T02:00:40;13.13;;;6.43;;
66095;SDS011;53861;53.422;14.530;2023-05-10T02:03:12;13.10;;;6.07;;
66095;SDS011;53861;53.422;14.530;2023-05-10T02:05:42;14.52;;;6.10;;
66095;SDS011;53861;53.422;14.530;2023-05-10T02:08:13;14.95;;;6.40;;
66095;SDS011;53861;53.422;14.530;2023-05-10T02:10:44;12.90;;;6.32;;
66095;SDS011;53861;53.422;14.530;2023-05-10T02:13:14;12.18;;;6.57;;
66095;SDS011;53861;53.422;14.530;2023-05-10T02:15:49;12.73;;;6.03;;
66095;SDS011;53861;53.422;14.530;2023-05-10T02:18:19;18.88;;;6.72;;
66095;SDS011;53861;53.422;14.530;2023-05-10T02:20:49;16.25;;;6.53;;
66095;SDS011;53861;53.422;14.530;2023-05-10T02:23:21;15.05;;;6.70;;
66095;SDS011;53861;53.422;14.530;2023-05-10T02:25:50;16.10;;;6.75;;
66095;SDS011;53861;53.422;14.530;2023-05-10T02:28:20;16.00;;;6.95;;
66095;SDS011;53861;53.422;14.530;2023-05-10T02:30:57;12.45;;;6.55;;
66095;SDS011;53861;53.422;14.530;2023-05-10T02:33:26;13.68;;;6.10;;
66095;SDS011;53861;53.422;14.530;2023-05-10T02:35:59;16.10;;;6.60;;
66095;SDS011;53861;53.422;14.530;2023-05-10T02:38:28;12.75;;;6.28;;
66095;SDS011;53861;53.422;14.530;2023-05-10T02:40:56;13.15;;;6.10;;
66095;SDS011;53861;53.422;14.530;2023-05-10T02:43:25;14.02;;;5.90;;
66095;SDS011;53861;53.422;14.530;2023-05-10T02:45:58;12.93;;;5.78;;
66095;SDS011;53861;53.422;14.530;2023-05-10T02:48:28;10.88;;;6.15;;
66095;SDS011;53861;53.422;14.530;2023-05-10T02:50:58;13.65;;;6.78;;
66095;SDS011;53861;53.422;14.530;2023-05-10T02:53:30;12.88;;;6.07;;
66095;SDS011;53861;53.422;14.530;2023-05-10T02:56:00;14.55;;;6.53;;
66095;SDS011;53861;53.422;14.530;2023-05-10T02:58:39;14.68;;;6.88;;
66095;SDS011;53861;53.422;14.530;2023-05-10T03:01:06;13.52;;;6.80;;
66095;SDS011;53861;53.422;14.530;2023-05-10T03:03:38;13.27;;;6.68;;
66095;SDS011;53861;53.422;14.530;2023-05-10T03:06:05;18.40;;;6.75;;
66095;SDS011;53861;53.422;14.530;2023-05-10T03:08:33;15.15;;;6.38;;
66095;SDS011;53861;53.422;14.530;2023-05-10T03:11:08;14.70;;;6.65;;
66095;SDS011;53861;53.422;14.530;2023-05-10T03:13:48;14.10;;;7.03;;
66095;SDS011;53861;53.422;14.530;2023-05-10T03:16:25;11.88;;;6.18;;
66095;SDS011;53861;53.422;14.530;2023-05-10T03:19:05;14.13;;;6.63;;
66095;SDS011;53861;53.422;14.530;2023-05-10T03:21:44;15.90;;;5.75;;
66095;SDS011;53861;53.422;14.530;2023-05-10T03:24:19;17.30;;;6.70;;
66095;SDS011;53861;53.422;14.530;2023-05-10T03:26:49;14.93;;;6.45;;
66095;SDS011;53861;53.422;14.530;2023-05-10T03:29:17;14.38;;;6.50;;
66095;SDS011;53861;53.422;14.530;2023-05-10T03:31:45;15.75;;;6.85;;
66095;SDS011;53861;53.422;14.530;2023-05-10T03:34:14;15.07;;;6.50;;
66095;SDS011;53861;53.422;14.530;2023-05-10T03:36:41;18.65;;;7.13;;
66095;SDS011;53861;53.422;14.530;2023-05-10T03:39:20;12.32;;;6.68;;
66095;SDS011;53861;53.422;14.530;2023-05-10T03:41:48;18.00;;;7.35;;
66095;SDS011;53861;53.422;14.530;2023-05-10T03:44:15;17.25;;;7.22;;
66095;SDS011;53861;53.422;14.530;2023-05-10T03:46:46;16.98;;;6.80;;
66095;SDS011;53861;53.422;14.530;2023-05-10T03:49:18;13.75;;;6.55;;
66095;SDS011;53861;53.422;14.530;2023-05-10T03:51:45;17.25;;;7.15;;
66095;SDS011;53861;53.422;14.530;2023-05-10T03:54:24;18.05;;;7.47;;
66095;SDS011;53861;53.422;14.530;2023-05-10T03:56:52;14.15;;;7.05;;
66095;SDS011;53861;53.422;14.530;2023-05-10T03:59:19;21.05;;;9.75;;
66095;SDS011;53861;53.422;14.530;2023-05-10T04:01:47;14.57;;;7.30;;
66095;SDS011;53861;53.422;14.530;2023-05-10T04:04:34;16.38;;;7.20;;
66095;SDS011;53861;53.422;14.530;2023-05-10T04:07:04;15.15;;;7.47;;
66095;SDS011;53861;53.422;14.530;2023-05-10T04:09:34;15.60;;;7.68;;
66095;SDS011;53861;53.422;14.530;2023-05-10T04:12:02;14.63;;;7.15;;
66095;SDS011;53861;53.422;14.530;2023-05-10T04:14:29;16.48;;;7.15;;
66095;SDS011;53861;53.422;14.530;2023-05-10T04:16:57;15.07;;;7.07;;
66095;SDS011;53861;53.422;14.530;2023-05-10T04:19:28;17.83;;;7.05;;
66095;SDS011;53861;53.422;14.530;2023-05-10T04:21:57;16.13;;;7.53;;
66095;SDS011;53861;53.422;14.530;2023-05-10T04:24:24;18.42;;;7.32;;
66095;SDS011;53861;53.422;14.530;2023-05-10T04:26:55;34.22;;;14.80;;
66095;SDS011;53861;53.422;14.530;2023-05-10T04:29:24;14.80;;;7.65;;
66095;SDS011;53861;53.422;14.530;2023-05-10T04:31:52;16.00;;;7.25;;
66095;SDS011;53861;53.422;14.530;2023-05-10T04:34:20;16.10;;;7.93;;
66095;SDS011;53861;53.422;14.530;2023-05-10T04:36:49;16.38;;;7.63;;
66095;SDS011;53861;53.422;14.530;2023-05-10T04:39:18;16.40;;;7.43;;
66095;SDS011;53861;53.422;14.530;2023-05-10T04:41:45;21.58;;;7.57;;
66095;SDS011;53861;53.422;14.530;2023-05-10T04:44:13;17.92;;;7.22;;
66095;SDS011;53861;53.422;14.530;2023-05-10T04:46:40;18.65;;;7.55;;
66095;SDS011;53861;53.422;14.530;2023-05-10T04:49:09;12.90;;;6.93;;
66095;SDS011;53861;53.422;14.530;2023-05-10T04:51:37;17.02;;;8.07;;
66095;SDS011;53861;53.422;14.530;2023-05-10T04:54:04;16.02;;;7.25;;
66095;SDS011;53861;53.422;14.530;2023-05-10T04:56:33;17.75;;;7.68;;
66095;SDS011;53861;53.422;14.530;2023-05-10T04:59:00;17.60;;;7.70;;
66095;SDS011;53861;53.422;14.530;2023-05-10T05:01:29;21.38;;;7.45;;
66095;SDS011;53861;53.422;14.530;2023-05-10T05:03:59;17.73;;;6.60;;
66095;SDS011;53861;53.422;14.530;2023-05-10T05:06:29;16.67;;;6.88;;
66095;SDS011;53861;53.422;14.530;2023-05-10T05:08:57;18.10;;;7.40;;
66095;SDS011;53861;53.422;14.530;2023-05-10T05:11:24;19.40;;;7.43;;
66095;SDS011;53861;53.422;14.530;2023-05-10T05:13:53;15.85;;;7.00;;
66095;SDS011;53861;53.422;14.530;2023-05-10T05:16:20;15.20;;;6.35;;
66095;SDS011;53861;53.422;14.530;2023-05-10T05:18:51;17.00;;;7.38;;
66095;SDS011;53861;53.422;14.530;2023-05-10T05:21:19;17.85;;;7.80;;
66095;SDS011;53861;53.422;14.530;2023-05-10T05:23:49;16.15;;;7.30;;
66095;SDS011;53861;53.422;14.530;2023-05-10T05:26:17;19.05;;;7.07;;
66095;SDS011;53861;53.422;14.530;2023-05-10T05:28:44;14.82;;;7.28;;
66095;SDS011;53861;53.422;14.530;2023-05-10T05:31:15;14.23;;;7.07;;
66095;SDS011;53861;53.422;14.530;2023-05-10T05:33:44;17.52;;;6.68;;
66095;SDS011;53861;53.422;14.530;2023-05-10T05:36:12;13.95;;;6.03;;
66095;SDS011;53861;53.422;14.530;2023-05-10T05:38:40;15.30;;;7.57;;
66095;SDS011;53861;53.422;14.530;2023-05-10T05:41:09;21.17;;;7.32;;
66095;SDS011;53861;53.422;14.530;2023-05-10T05:43:38;14.20;;;6.68;;
66095;SDS011;53861;53.422;14.530;2023-05-10T05:46:05;14.65;;;7.28;;
66095;SDS011;53861;53.422;14.530;2023-05-10T05:48:36;15.48;;;7.28;;
66095;SDS011;53861;53.422;14.530;2023-05-10T05:51:04;22.20;;;8.55;;
66095;SDS011;53861;53.422;14.530;2023-05-10T05:53:33;14.85;;;6.78;;
66095;SDS011;53861;53.422;14.530;2023-05-10T05:56:00;18.60;;;7.15;;
66095;SDS011;53861;53.422;14.530;2023-05-10T05:58:31;13.98;;;6.97;;
66095;SDS011;53861;53.422;14.530;2023-05-10T06:01:04;16.02;;;7.20;;
66095;SDS011;53861;53.422;14.530;2023-05-10T06:03:32;15.98;;;6.80;;
66095;SDS011;53861;53.422;14.530;2023-05-10T06:06:00;17.85;;;6.70;;
66095;SDS011;53861;53.422;14.530;2023-05-10T06:08:30;15.05;;;6.57;;
66095;SDS011;53861;53.422;14.530;2023-05-10T06:11:00;14.93;;;6.60;;
66095;SDS011;53861;53.422;14.530;2023-05-10T06:13:29;14.57;;;5.85;;
66095;SDS011;53861;53.422;14.530;2023-05-10T06:15:57;12.63;;;6.47;;
66095;SDS011;53861;53.422;14.530;2023-05-10T06:18:25;15.27;;;6.70;;
66095;SDS011;53861;53.422;14.530;2023-05-10T06:20:52;15.55;;;6.35;;
66095;SDS011;53861;53.422;14.530;2023-05-10T06:23:21;21.13;;;6.20;;
66095;SDS011;53861;53.422;14.530;2023-05-10T06:25:48;11.68;;;6.20;;
66095;SDS011;53861;53.422;14.530;2023-05-10T06:28:16;13.27;;;6.32;;
66095;SDS011;53861;53.422;14.530;2023-05-10T06:30:49;11.95;;;5.25;;
66095;SDS011;53861;53.422;14.530;2023-05-10T06:33:17;12.95;;;5.72;;
66095;SDS011;53861;53.422;14.530;2023-05-10T06:35:44;13.40;;;5.97;;
66095;SDS011;53861;53.422;14.530;2023-05-10T06:38:14;11.55;;;5.95;;
66095;SDS011;53861;53.422;14.530;2023-05-10T06:40:43;10.80;;;5.55;;
66095;SDS011;53861;53.422;14.530;2023-05-10T06:43:10;14.85;;;6.10;;
66095;SDS011;53861;53.422;14.530;2023-05-10T06:45:38;11.98;;;5.50;;
66095;SDS011;53861;53.422;14.530;2023-05-10T06:48:06;14.65;;;5.72;;
66095;SDS011;53861;53.422;14.530;2023-05-10T06:50:33;13.55;;;5.07;;
66095;SDS011;53861;53.422;14.530;2023-05-10T06:53:01;12.25;;;5.40;;
66095;SDS011;53861;53.422;14.530;2023-05-10T06:55:30;14.70;;;6.18;;
66095;SDS011;53861;53.422;14.530;2023-05-10T06:57:58;11.50;;;5.28;;
66095;SDS011;53861;53.422;14.530;2023-05-10T07:00:26;14.95;;;5.35;;
66095;SDS011;53861;53.422;14.530;2023-05-10T07:02:53;10.73;;;5.05;;
66095;SDS011;53861;53.422;14.530;2023-05-10T07:05:20;11.13;;;5.00;;
66095;SDS011;53861;53.422;14.530;2023-05-10T07:07:48;10.82;;;4.70;;
66095;SDS011;53861;53.422;14.530;2023-05-10T07:10:15;10.50;;;4.57;;
66095;SDS011;53861;53.422;14.530;2023-05-10T07:12:43;8.13;;;4.43;;
66095;SDS011;53861;53.422;14.530;2023-05-10T07:15:11;8.75;;;4.47;;
66095;SDS011;53861;53.422;14.530;2023-05-10T07:17:39;9.95;;;4.10;;
66095;SDS011;53861;53.422;14.530;2023-05-10T07:20:07;11.75;;;4.90;;
66095;SDS011;53861;53.422;14.530;2023-05-10T07:22:35;9.43;;;4.45;;
66095;SDS011;53861;53.422;14.530;2023-05-10T07:25:02;11.30;;;5.20;;
66095;SDS011;53861;53.422;14.530;2023-05-10T07:27:30;11.73;;;5.00;;
66095;SDS011;53861;53.422;14.530;2023-05-10T07:29:58;14.27;;;4.80;;
66095;SDS011;53861;53.422;14.530;2023-05-10T07:32:27;10.95;;;4.85;;
66095;SDS011;53861;53.422;14.530;2023-05-10T07:34:54;11.25;;;4.93;;
66095;SDS011;53861;53.422;14.530;2023-05-10T07:37:21;7.78;;;4.10;;
66095;SDS011;53861;53.422;14.530;2023-05-10T07:39:49;8.57;;;4.03;;
66095;SDS011;53861;53.422;14.530;2023-05-10T07:42:16;7.75;;;4.20;;
66095;SDS011;53861;53.422;14.530;2023-05-10T07:44:43;7.90;;;4.65;;
66095;SDS011;53861;53.422;14.530;2023-05-10T07:47:11;10.63;;;3.92;;
66095;SDS011;53861;53.422;14.530;2023-05-10T07:49:39;9.32;;;4.32;;
66095;SDS011;53861;53.422;14.530;2023-05-10T07:52:06;9.52;;;4.07;;
66095;SDS011;53861;53.422;14.530;2023-05-10T07:54:34;10.75;;;4.40;;
66095;SDS011;53861;53.422;14.530;2023-05-10T07:57:01;8.13;;;4.22;;
66095;SDS011;53861;53.422;14.530;2023-05-10T07:59:28;13.27;;;4.43;;
66095;SDS011;53861;53.422;14.530;2023-05-10T08:01:56;9.57;;;4.20;;
66095;SDS011;53861;53.422;14.530;2023-05-10T08:04:23;11.25;;;4.18;;
66095;SDS011;53861;53.422;14.530;2023-05-10T08:06:51;10.15;;;4.40;;
66095;SDS011;53861;53.422;14.530;2023-05-10T08:09:19;9.07;;;3.78;;
66095;SDS011;53861;53.422;14.530;2023-05-10T08:11:49;10.02;;;4.00;;
66095;SDS011;53861;53.422;14.530;2023-05-10T08:14:16;8.15;;;3.58;;
66095;SDS011;53861;53.422;14.530;2023-05-10T08:16:43;9.65;;;4.18;;
66095;SDS011;53861;53.422;14.530;2023-05-10T08:19:11;8.68;;;4.10;;
66095;SDS011;53861;53.422;14.530;2023-05-10T08:21:38;8.48;;;3.97;;
66095;SDS011;53861;53.422;14.530;2023-05-10T08:24:07;8.63;;;4.30;;
66095;SDS011;53861;53.422;14.530;2023-05-10T08:26:34;9.65;;;4.20;;
66095;SDS011;53861;53.422;14.530;2023-05-10T08:29:02;10.93;;;3.92;;
66095;SDS011;53861;53.422;14.530;2023-05-10T08:31:29;9.95;;;3.90;;
66095;SDS011;53861;53.422;14.530;2023-05-10T08:33:56;8.50;;;4.25;;
66095;SDS011;53861;53.422;14.530;2023-05-10T08:36:24;9.25;;;4.30;;
66095;SDS011;53861;53.422;14.530;2023-05-10T08:38:52;8.70;;;3.80;;
66095;SDS011;53861;53.422;14.530;2023-05-10T08:41:21;8.75;;;3.97;;
66095;SDS011;53861;53.422;14.530;2023-05-10T08:43:50;6.00;;;3.60;;
66095;SDS011;53861;53.422;14.530;2023-05-10T08:46:18;12.15;;;3.80;;
66095;SDS011;53861;53.422;14.530;2023-05-10T08:48:47;9.73;;;4.30;;
66095;SDS011;53861;53.422;14.530;2023-05-10T08:51:17;7.13;;;3.95;;
66095;SDS011;53861;53.422;14.530;2023-05-10T08:53:45;8.50;;;4.00;;
66095;SDS011;53861;53.422;14.530;2023-05-10T08:56:12;11.98;;;4.30;;
66095;SDS011;53861;53.422;14.530;2023-05-10T08:58:42;6.90;;;3.88;;
66095;SDS011;53861;53.422;14.530;2023-05-10T09:01:10;11.32;;;3.90;;
66095;SDS011;53861;53.422;14.530;2023-05-10T09:03:39;7.85;;;3.60;;
66095;SDS011;53861;53.422;14.530;2023-05-10T09:06:07;13.13;;;3.70;;
66095;SDS011;53861;53.422;14.530;2023-05-10T09:08:34;9.00;;;3.70;;
66095;SDS011;53861;53.422;14.530;2023-05-10T09:11:04;8.63;;;3.50;;
66095;SDS011;53861;53.422;14.530;2023-05-10T09:13:32;9.85;;;3.83;;
66095;SDS011;53861;53.422;14.530;2023-05-10T09:16:01;11.05;;;3.75;;
66095;SDS011;53861;53.422;14.530;2023-05-10T09:18:29;9.40;;;4.00;;
66095;SDS011;53861;53.422;14.530;2023-05-10T09:20:57;10.00;;;4.15;;
66095;SDS011;53861;53.422;14.530;2023-05-10T09:23:25;10.30;;;3.65;;
66095;SDS011;53861;53.422;14.530;2023-05-10T09:26:03;11.55;;;3.78;;
66095;SDS011;53861;53.422;14.530;2023-05-10T09:28:31;13.05;;;3.92;;
66095;SDS011;53861;53.422;14.530;2023-05-10T09:30:59;12.63;;;3.70;;
66095;SDS011;53861;53.422;14.530;2023-05-10T09:33:28;8.55;;;3.60;;
66095;SDS011;53861;53.422;14.530;2023-05-10T09:36:05;7.75;;;3.22;;
66095;SDS011;53861;53.422;14.530;2023-05-10T09:38:44;9.73;;;3.88;;
66095;SDS011;53861;53.422;14.530;2023-05-10T09:41:17;7.68;;;3.60;;
66095;SDS011;53861;53.422;14.530;2023-05-10T09:43:45;11.02;;;3.97;;
66095;SDS011;53861;53.422;14.530;2023-05-10T09:46:13;7.15;;;3.53;;
66095;SDS011;53861;53.422;14.530;2023-05-10T09:48:43;8.80;;;3.63;;
66095;SDS011;53861;53.422;14.530;2023-05-10T09:51:18;9.15;;;4.10;;
66095;SDS011;53861;53.422;14.530;2023-05-10T09:53:47;7.97;;;3.50;;
66095;SDS011;53861;53.422;14.530;2023-05-10T09:59:04;10.05;;;3.38;;
66095;SDS011;53861;53.422;14.530;2023-05-10T10:01:33;7.20;;;3.42;;
66095;SDS011;53861;53.422;14.530;2023-05-10T10:04:03;7.53;;;3.38;;
66095;SDS011;53861;53.422;14.530;2023-05-10T10:06:35;9.02;;;3.78;;
66095;SDS011;53861;53.422;14.530;2023-05-10T10:09:03;8.37;;;3.70;;
66095;SDS011;53861;53.422;14.530;2023-05-10T10:11:31;11.48;;;3.40;;
66095;SDS011;53861;53.422;14.530;2023-05-10T10:14:01;12.30;;;3.42;;
66095;SDS011;53861;53.422;14.530;2023-05-10T10:16:30;7.57;;;3.17;;
66095;SDS011;53861;53.422;14.530;2023-05-10T10:18:58;13.57;;;3.05;;
66095;SDS011;53861;53.422;14.530;2023-05-10T10:21:27;8.25;;;3.25;;
66095;SDS011;53861;53.422;14.530;2023-05-10T10:23:54;16.10;;;3.28;;
66095;SDS011;53861;53.422;14.530;2023-05-10T10:26:22;14.52;;;4.18;;
66095;SDS011;53861;53.422;14.530;2023-05-10T10:28:51;5.90;;;2.90;;
66095;SDS011;53861;53.422;14.530;2023-05-10T10:31:32;6.75;;;3.05;;
66095;SDS011;53861;53.422;14.530;2023-05-10T10:34:05;11.45;;;3.08;;
66095;SDS011;53861;53.422;14.530;2023-05-10T10:36:40;5.78;;;2.80;;
66095;SDS011;53861;53.422;14.530;2023-05-10T10:39:10;9.88;;;3.30;;
66095;SDS011;53861;53.422;14.530;2023-05-10T10:41:39;6.63;;;2.78;;
66095;SDS011;53861;53.422;14.530;2023-05-10T10:44:25;7.32;;;2.90;;
66095;SDS011;53861;53.422;14.530;2023-05-10T10:47:00;9.07;;;2.72;;
66095;SDS011;53861;53.422;14.530;2023-05-10T10:49:31;10.73;;;2.78;;
66095;SDS011;53861;53.422;14.530;2023-05-10T10:54:57;7.80;;;2.70;;
66095;SDS011;53861;53.422;14.530;2023-05-10T11:02:45;9.20;;;3.65;;
66095;SDS011;53861;53.422;14.530;2023-05-10T11:08:11;7.00;;;2.80;;
66095;SDS011;53861;53.422;14.530;2023-05-10T11:13:38;14.32;;;3.20;;
66095;SDS011;53861;53.422;14.530;2023-05-10T11:16:10;12.55;;;2.90;;
66095;SDS011;53861;53.422;14.530;2023-05-10T11:18:51;7.50;;;2.65;;
66095;SDS011;53861;53.422;14.530;2023-05-10T11:21:24;6.85;;;2.95;;
66095;SDS011;53861;53.422;14.530;2023-05-10T11:23:53;13.95;;;2.40;;
66095;SDS011;53861;53.422;14.530;2023-05-10T11:26:23;14.82;;;3.20;;
66095;SDS011;53861;53.422;14.530;2023-05-10T11:28:52;8.65;;;3.30;;
66095;SDS011;53861;53.422;14.530;2023-05-10T11:31:22;11.50;;;2.92;;
66095;SDS011;53861;53.422;14.530;2023-05-10T11:33:53;5.07;;;2.90;;
66095;SDS011;53861;53.422;14.530;2023-05-10T11:36:21;12.18;;;2.97;;
66095;SDS011;53861;53.422;14.530;2023-05-10T11:38:51;9.40;;;2.65;;
66095;SDS011;53861;53.422;14.530;2023-05-10T11:41:20;10.73;;;3.00;;
66095;SDS011;53861;53.422;14.530;2023-05-10T11:43:49;8.30;;;2.90;;
66095;SDS011;53861;53.422;14.530;2023-05-10T11:46:18;6.88;;;2.75;;
66095;SDS011;53861;53.422;14.530;2023-05-10T11:48:47;8.77;;;2.92;;
66095;SDS011;53861;53.422;14.530;2023-05-10T11:51:19;9.18;;;2.50;;
66095;SDS011;53861;53.422;14.530;2023-05-10T11:53:48;10.18;;;2.72;;
66095;SDS011;53861;53.422;14.530;2023-05-10T11:56:18;8.23;;;2.80;;
66095;SDS011;53861;53.422;14.530;2023-05-10T11:58:49;8.48;;;2.90;;
66095;SDS011;53861;53.422;14.530;2023-05-10T12:01:20;7.72;;;2.67;;
66095;SDS011;53861;53.422;14.530;2023-05-10T12:03:48;8.27;;;2.70;;
66095;SDS011;53861;53.422;14.530;2023-05-10T12:06:16;12.73;;;2.47;;
66095;SDS011;53861;53.422;14.530;2023-05-10T12:08:44;7.28;;;2.50;;
66095;SDS011;53861;53.422;14.530;2023-05-10T12:11:12;8.90;;;2.30;;
66095;SDS011;53861;53.422;14.530;2023-05-10T12:13:43;11.57;;;2.83;;
66095;SDS011;53861;53.422;14.530;2023-05-10T12:16:12;5.68;;;2.50;;
66095;SDS011;53861;53.422;14.530;2023-05-10T12:18:40;12.70;;;2.78;;
66095;SDS011;53861;53.422;14.530;2023-05-10T12:21:09;5.72;;;2.50;;
66095;SDS011;53861;53.422;14.530;2023-05-10T12:23:37;18.40;;;3.25;;
66095;SDS011;53861;53.422;14.530;2023-05-10T12:26:04;9.43;;;2.90;;
66095;SDS011;53861;53.422;14.530;2023-05-10T12:28:32;14.85;;;3.00;;
66095;SDS011;53861;53.422;14.530;2023-05-10T12:31:02;10.90;;;2.45;;
66095;SDS011;53861;53.422;14.530;2023-05-10T12:33:35;5.20;;;2.17;;
66095;SDS011;53861;53.422;14.530;2023-05-10T12:36:04;7.10;;;2.40;;
66095;SDS011;53861;53.422;14.530;2023-05-10T12:38:32;9.63;;;2.75;;
66095;SDS011;53861;53.422;14.530;2023-05-10T12:41:05;6.45;;;2.40;;
66095;SDS011;53861;53.422;14.530;2023-05-10T12:43:33;7.65;;;2.70;;
66095;SDS011;53861;53.422;14.530;2023-05-10T12:46:06;6.28;;;2.40;;
66095;SDS011;53861;53.422;14.530;2023-05-10T12:48:35;7.68;;;3.00;;
66095;SDS011;53861;53.422;14.530;2023-05-10T12:51:04;12.20;;;2.63;;
66095;SDS011;53861;53.422;14.530;2023-05-10T12:53:34;8.45;;;2.72;;
66095;SDS011;53861;53.422;14.530;2023-05-10T12:56:02;8.57;;;2.42;;
66095;SDS011;53861;53.422;14.530;2023-05-10T12:58:30;6.00;;;2.78;;
66095;SDS011;53861;53.422;14.530;2023-05-10T13:00:57;6.93;;;2.33;;
66095;SDS011;53861;53.422;14.530;2023-05-10T13:03:26;8.73;;;2.95;;
66095;SDS011;53861;53.422;14.530;2023-05-10T13:05:53;7.55;;;2.17;;
66095;SDS011;53861;53.422;14.530;2023-05-10T13:08:21;11.45;;;2.88;;
66095;SDS011;53861;53.422;14.530;2023-05-10T13:10:48;6.88;;;2.63;;
66095;SDS011;53861;53.422;14.530;2023-05-10T13:13:15;6.32;;;2.92;;
66095;SDS011;53861;53.422;14.530;2023-05-10T13:15:43;10.05;;;3.45;;
66095;SDS011;53861;53.422;14.530;2023-05-10T13:18:11;7.97;;;3.03;;
66095;SDS011;53861;53.422;14.530;2023-05-10T13:20:40;10.05;;;3.17;;
66095;SDS011;53861;53.422;14.530;2023-05-10T13:23:09;5.75;;;2.67;;
66095;SDS011;53861;53.422;14.530;2023-05-10T13:25:37;7.85;;;2.90;;
66095;SDS011;53861;53.422;14.530;2023-05-10T13:28:04;11.82;;;3.20;;
66095;SDS011;53861;53.422;14.530;2023-05-10T13:30:32;11.85;;;2.50;;
66095;SDS011;53861;53.422;14.530;2023-05-10T13:32:59;9.68;;;2.70;;
66095;SDS011;53861;53.422;14.530;2023-05-10T13:35:26;4.57;;;2.53;;
66095;SDS011;53861;53.422;14.530;2023-05-10T13:37:55;8.85;;;3.58;;
66095;SDS011;53861;53.422;14.530;2023-05-10T13:40:23;10.48;;;3.10;;
66095;SDS011;53861;53.422;14.530;2023-05-10T13:42:50;10.35;;;3.17;;
66095;SDS011;53861;53.422;14.530;2023-05-10T13:45:18;8.35;;;2.80;;
66095;SDS011;53861;53.422;14.530;2023-05-10T13:47:46;8.82;;;3.63;;
66095;SDS011;53861;53.422;14.530;2023-05-10T13:50:13;11.85;;;3.20;;
66095;SDS011;53861;53.422;14.530;2023-05-10T13:52:41;11.48;;;2.90;;
66095;SDS011;53861;53.422;14.530;2023-05-10T13:55:09;10.75;;;2.92;;
66095;SDS011;53861;53.422;14.530;2023-05-10T13:57:37;8.80;;;2.90;;
66095;SDS011;53861;53.422;14.530;2023-05-10T14:00:05;8.88;;;3.05;;
66095;SDS011;53861;53.422;14.530;2023-05-10T14:02:33;8.73;;;3.17;;
66095;SDS011;53861;53.422;14.530;2023-05-10T14:05:01;12.48;;;3.08;;
66095;SDS011;53861;53.422;14.530;2023-05-10T14:07:28;9.32;;;3.10;;
66095;SDS011;53861;53.422;14.530;2023-05-10T14:09:56;5.93;;;2.92;;
66095;SDS011;53861;53.422;14.530;2023-05-10T14:12:25;6.55;;;3.05;;
66095;SDS011;53861;53.422;14.530;2023-05-10T14:14:52;10.63;;;3.15;;
66095;SDS011;53861;53.422;14.530;2023-05-10T14:17:19;12.73;;;2.78;;
66095;SDS011;53861;53.422;14.530;2023-05-10T14:19:47;9.98;;;2.92;;
66095;SDS011;53861;53.422;14.530;2023-05-10T14:22:14;7.28;;;3.35;;
66095;SDS011;53861;53.422;14.530;2023-05-10T14:24:42;8.07;;;3.10;;
66095;SDS011;53861;53.422;14.530;2023-05-10T14:27:12;7.55;;;3.00;;
66095;SDS011;53861;53.422;14.530;2023-05-10T14:29:41;5.95;;;3.10;;
66095;SDS011;53861;53.422;14.530;2023-05-10T14:32:08;5.20;;;2.88;;
66095;SDS011;53861;53.422;14.530;2023-05-10T14:34:36;9.70;;;3.10;;
66095;SDS011;53861;53.422;14.530;2023-05-10T14:37:03;8.82;;;3.10;;
66095;SDS011;53861;53.422;14.530;2023-05-10T14:39:30;7.85;;;3.15;;
66095;SDS011;53861;53.422;14.530;2023-05-10T14:41:58;6.70;;;3.05;;
66095;SDS011;53861;53.422;14.530;2023-05-10T14:44:26;8.95;;;3.10;;
66095;SDS011;53861;53.422;14.530;2023-05-10T14:46:54;7.35;;;3.17;;
66095;SDS011;53861;53.422;14.530;2023-05-10T14:49:22;9.25;;;2.80;;
66095;SDS011;53861;53.422;14.530;2023-05-10T14:51:51;6.10;;;3.00;;
66095;SDS011;53861;53.422;14.530;2023-05-10T14:54:18;8.05;;;3.00;;
66095;SDS011;53861;53.422;14.530;2023-05-10T14:56:49;12.20;;;3.70;;
66095;SDS011;53861;53.422;14.530;2023-05-10T14:59:17;7.50;;;2.83;;
66095;SDS011;53861;53.422;14.530;2023-05-10T15:01:45;7.22;;;3.10;;